Time,TemperatureF,DewpointF,PressureIn,WindDirection,WindDirectionDegrees,WindSpeedMPH,WindSpeedGustMPH,Humidity,HourlyPrecipIn,Conditions,Clouds,dailyrainin,SoftwareType,DateUTC
2013-03-20 00:00:00,30.1,21.2,29.94,WNW,282,9.9,15.0,69,0.00,OVC,,0.02,WeatherDisplay:10.37,2013-03-20 04:00:00,
2013-03-20 00:05:00,30.1,21.5,29.94,WSW,245,7.5,11.5,70,0.00,RA,,0.00,WeatherDisplay:10.37,2013-03-20 04:05:00,
2013-03-20 00:10:00,29.9,21.3,29.94,WNW,289,6.7,10.4,70,0.00,RA,,0.00,WeatherDisplay:10.37,2013-03-20 04:10:00,
2013-03-20 00:15:00,29.8,21.5,29.94,WNW,292,6.6,11.5,71,0.00,BKN,,0.00,WeatherDisplay:10.37,2013-03-20 04:15:00,
2013-03-20 00:20:00,29.7,21.4,29.94,West,266,3.6,6.9,71,0.00,BKN,,0.00,WeatherDisplay:10.37,2013-03-20 04:20:00,
2013-03-20 00:25:00,29.7,21.4,29.94,West,281,6.9,13.0,71,0.00,BKN,,0.00,WeatherDisplay:10.37,2013-03-20 04:25:00,
2013-03-20 00:30:00,29.6,21.7,29.94,West,266,2.2,4.0,72,0.00,BKN,,0.00,WeatherDisplay:10.37,2013-03-20 04:30:00,
2013-03-20 00:35:00,29.4,21.2,29.94,West,278,5.3,11.5,71,0.00,BKN,,0.00,WeatherDisplay:10.37,2013-03-20 04:35:00,
2013-03-20 00:40:00,29.4,21.2,29.94,West,277,6.0,8.1,71,0.00,BKN,,0.00,WeatherDisplay:10.37,2013-03-20 04:40:00,
2013-03-20 00:45:00,29.4,21.5,29.94,West,261,4.6,6.9,72,0.00,BKN,,0.00,WeatherDisplay:10.37,2013-03-20 04:45:00,
2013-03-20 00:50:00,29.3,21.4,29.94,West,273,3.5,4.6,72,0.00,BKN,,0.00,WeatherDisplay:10.37,2013-03-20 04:50:00,
2013-03-20 00:55:00,29.2,21.6,29.94,WNW,290,5.8,11.5,73,0.00,BKN,,0.00,WeatherDisplay:10.37,2013-03-20 04:55:00,
2013-03-20 01:00:00,29.1,21.5,29.94,West,274,6.0,10.4,73,0.00,BKN,,0.00,WeatherDisplay:10.37,2013-03-20 05:00:00,
2013-03-20 01:05:00,29.1,21.5,29.94,West,275,4.7,6.0,73,0.00,BKN,,0.00,WeatherDisplay:10.37,2013-03-20 05:05:00,
2013-03-20 01:10:00,29.2,21.3,29.94,WSW,248,4.8,9.2,72,0.00,BKN,,0.00,WeatherDisplay:10.37,2013-03-20 05:10:00,
2013-03-20 01:15:00,29.3,21.4,29.94,West,267,4.6,6.9,72,0.00,BKN,,0.00,WeatherDisplay:10.37,2013-03-20 05:15:00,
2013-03-20 01:20:00,29.3,21.1,29.94,WNW,286,5.8,9.2,71,0.00,BKN,,0.00,WeatherDisplay:10.37,2013-03-20 05:20:00,
2013-03-20 01:25:00,29.4,21.2,29.94,WNW,292,5.4,9.2,71,0.00,BKN,,0.00,WeatherDisplay:10.37,2013-03-20 05:25:00,
2013-03-20 01:30:00,29.5,20.9,29.94,West,269,5.2,9.2,70,0.00,BKN,,0.00,WeatherDisplay:10.37,2013-03-20 05:30:00,
2013-03-20 01:35:00,29.5,20.9,29.94,WNW,298,7.7,15.0,70,0.00,BKN,,0.00,WeatherDisplay:10.37,2013-03-20 05:35:00,
2013-03-20 01:40:00,29.6,20.7,29.94,West,262,6.6,11.5,69,0.00,BKN,,0.00,WeatherDisplay:10.37,2013-03-20 05:40:00,
2013-03-20 01:45:00,29.6,20.3,29.94,West,267,6.9,17.3,68,0.00,BKN,,0.00,WeatherDisplay:10.37,2013-03-20 05:45:00,
2013-03-20 01:50:00,29.6,20.7,29.95,WNW,290,4.8,6.9,69,0.00,BKN,,0.00,WeatherDisplay:10.37,2013-03-20 05:50:00,
2013-03-20 01:55:00,29.6,20.3,29.95,WNW,292,7.9,12.7,68,0.00,BKN,,0.00,WeatherDisplay:10.37,2013-03-20 05:55:00,
2013-03-20 02:00:00,29.6,20.3,29.95,West,259,6.4,9.2,68,0.00,BKN,,0.00,WeatherDisplay:10.37,2013-03-20 06:00:00,
2013-03-20 02:05:00,29.5,20.6,29.95,West,261,6.4,11.5,69,0.00,SCT,,0.00,WeatherDisplay:10.37,2013-03-20 06:05:00,
2013-03-20 02:10:00,29.5,20.6,29.95,WSW,258,3.7,6.0,69,0.00,SCT,,0.00,WeatherDisplay:10.37,2013-03-20 06:10:00,
2013-03-20 02:15:00,29.4,20.1,29.95,WSW,254,5.4,9.2,68,0.00,SCT,,0.00,WeatherDisplay:10.37,2013-03-20 06:15:00,
2013-03-20 02:20:00,29.4,20.5,29.95,WNW,290,8.0,9.2,69,0.00,SCT,,0.00,WeatherDisplay:10.37,2013-03-20 06:20:00,
2013-03-20 02:25:00,29.4,20.5,29.95,WSW,251,5.0,11.5,69,0.00,SCT,,0.00,WeatherDisplay:10.37,2013-03-20 06:25:00,
2013-03-20 02:30:00,29.4,20.8,29.95,West,273,5.8,9.2,70,0.00,SCT,,0.00,WeatherDisplay:10.37,2013-03-20 06:30:00,
2013-03-20 02:35:00,29.4,20.5,29.95,WSW,257,7.4,13.8,69,0.00,SCT,,0.00,WeatherDisplay:10.37,2013-03-20 06:35:00,
2013-03-20 02:40:00,29.4,20.5,29.95,West,281,5.7,6.9,69,0.00,SCT,,0.00,WeatherDisplay:10.37,2013-03-20 06:40:00,
2013-03-20 02:45:00,29.4,20.5,29.95,WNW,297,4.9,6.9,69,0.00,SCT,,0.00,WeatherDisplay:10.37,2013-03-20 06:45:00,
2013-03-20 02:50:00,29.4,20.5,29.95,West,280,4.4,8.1,69,0.00,SCT,,0.00,WeatherDisplay:10.37,2013-03-20 06:50:00,
2013-03-20 02:55:00,29.5,20.2,29.95,West,278,6.2,7.0,68,0.00,SCT,,0.00,WeatherDisplay:10.37,2013-03-20 06:55:00,
2013-03-20 03:00:00,29.5,20.6,29.95,West,268,3.0,3.5,69,0.00,SCT,,0.00,WeatherDisplay:10.37,2013-03-20 07:00:00,
2013-03-20 03:05:00,29.5,20.2,29.95,West,259,3.2,4.6,68,0.00,BKN,,0.00,WeatherDisplay:10.37,2013-03-20 07:05:00,
2013-03-20 03:10:00,29.4,20.5,29.95,West,273,1.7,3.5,69,0.00,BKN,,0.00,WeatherDisplay:10.37,2013-03-20 07:10:00,
2013-03-20 03:15:00,29.4,20.5,29.95,WSW,254,5.2,8.1,69,0.00,BKN,,0.00,WeatherDisplay:10.37,2013-03-20 07:15:00,
2013-03-20 03:20:00,29.4,20.5,29.95,WSW,255,6.8,12.0,69,0.00,BKN,,0.00,WeatherDisplay:10.37,2013-03-20 07:20:00,
2013-03-20 03:25:00,29.4,20.8,29.94,WNW,290,3.3,4.6,70,0.00,BKN,,0.00,WeatherDisplay:10.37,2013-03-20 07:25:00,
2013-03-20 03:30:00,29.4,20.5,29.94,WNW,286,2.9,6.0,69,0.00,BKN,,0.00,WeatherDisplay:10.37,2013-03-20 07:30:00,
2013-03-20 03:35:00,29.4,20.8,29.94,WSW,258,5.1,8.1,70,0.00,BKN,,0.00,WeatherDisplay:10.37,2013-03-20 07:35:00,
2013-03-20 03:40:00,29.4,20.5,29.94,West,279,2.9,4.6,69,0.00,BKN,,0.00,WeatherDisplay:10.37,2013-03-20 07:40:00,
2013-03-20 03:45:00,29.4,20.1,29.94,West,268,4.5,11.0,68,0.00,BKN,,0.00,WeatherDisplay:10.37,2013-03-20 07:45:00,
2013-03-20 03:50:00,29.3,20.4,29.94,West,270,4.7,8.1,69,0.00,BKN,,0.00,WeatherDisplay:10.37,2013-03-20 07:50:00,
2013-03-20 03:55:00,29.3,20.4,29.94,NW,309,5.0,7.0,69,0.00,BKN,,0.00,WeatherDisplay:10.37,2013-03-20 07:55:00,
2013-03-20 04:00:00,29.3,20.7,29.94,West,279,3.1,4.6,70,0.00,BKN,,0.00,WeatherDisplay:10.37,2013-03-20 08:00:00,
2013-03-20 04:05:00,29.2,20.3,29.94,WNW,295,5.5,6.9,69,0.00,-SN,,0.00,WeatherDisplay:10.37,2013-03-20 08:05:00,
2013-03-20 04:10:00,29.2,20.6,29.93,West,271,2.7,4.0,70,0.00,-SN,,0.00,WeatherDisplay:10.37,2013-03-20 08:10:00,
2013-03-20 04:15:00,29.2,20.6,29.93,West,263,1.8,3.5,70,0.00,-SN,,0.00,WeatherDisplay:10.37,2013-03-20 08:15:00,
2013-03-20 04:20:00,29.2,21.3,29.93,WNW,286,5.8,9.2,72,0.00,-SN,,0.00,WeatherDisplay:10.37,2013-03-20 08:20:00,
2013-03-20 04:25:00,29.2,21.0,29.93,West,267,2.5,3.5,71,0.00,-SN,,0.00,WeatherDisplay:10.37,2013-03-20 08:25:00,
2013-03-20 04:30:00,29.2,21.0,29.94,West,260,2.3,4.0,71,0.00,-SN,,0.00,WeatherDisplay:10.37,2013-03-20 08:30:00,
2013-03-20 04:35:00,29.2,20.6,29.94,WSW,250,2.1,3.5,70,0.00,-SN,,0.00,WeatherDisplay:10.37,2013-03-20 08:35:00,
2013-03-20 04:40:00,29.0,20.4,29.93,SW,225,1.9,3.5,70,0.00,-SN,,0.00,WeatherDisplay:10.37,2013-03-20 08:40:00,
2013-03-20 04:45:00,29.0,20.8,29.93,WSW,242,2.6,3.5,71,0.00,-SN,,0.00,WeatherDisplay:10.37,2013-03-20 08:45:00,
2013-03-20 04:50:00,28.9,20.7,29.94,WSW,240,2.6,4.6,71,0.00,-SN,,0.00,WeatherDisplay:10.37,2013-03-20 08:50:00,
2013-03-20 04:55:00,28.8,20.6,29.93,WSW,253,2.2,3.5,71,0.00,-SN,,0.00,WeatherDisplay:10.37,2013-03-20 08:55:00,
2013-03-20 05:00:00,28.7,20.5,29.93,WSW,250,2.0,4.6,71,0.00,-SN,,0.00,WeatherDisplay:10.37,2013-03-20 09:00:00,
2013-03-20 05:05:00,28.7,20.5,29.93,West,266,2.4,3.5,71,0.00,-SN,,0.00,WeatherDisplay:10.37,2013-03-20 09:05:00,
2013-03-20 05:10:00,28.7,20.5,29.94,WSW,255,4.5,5.8,71,0.00,-SN,,0.00,WeatherDisplay:10.37,2013-03-20 09:10:00,
2013-03-20 05:15:00,28.7,20.5,29.93,West,264,4.7,5.8,71,0.00,-SN,,0.00,WeatherDisplay:10.37,2013-03-20 09:15:00,
2013-03-20 05:20:00,28.7,20.8,29.93,West,268,3.0,3.5,72,0.00,-SN,,0.00,WeatherDisplay:10.37,2013-03-20 09:20:00,
2013-03-20 05:25:00,28.7,20.5,29.94,SW,236,3.6,8.1,71,0.00,-SN,,0.00,WeatherDisplay:10.37,2013-03-20 09:25:00,
2013-03-20 05:30:00,28.6,20.7,29.94,West,263,3.4,5.8,72,0.00,-SN,,0.00,WeatherDisplay:10.37,2013-03-20 09:30:00,
2013-03-20 05:35:00,28.6,20.7,29.94,WNW,293,3.1,5.8,72,0.00,-SN,,0.00,WeatherDisplay:10.37,2013-03-20 09:35:00,
2013-03-20 05:40:00,28.5,20.6,29.94,WSW,257,5.9,10.4,72,0.00,-SN,,0.00,WeatherDisplay:10.37,2013-03-20 09:40:00,
2013-03-20 05:45:00,28.4,20.5,29.94,West,269,2.1,3.5,72,0.00,-SN,,0.00,WeatherDisplay:10.37,2013-03-20 09:45:00,
2013-03-20 05:50:00,28.4,20.5,29.94,WSW,257,5.7,6.9,72,0.00,-SN,,0.00,WeatherDisplay:10.37,2013-03-20 09:50:00,
2013-03-20 05:55:00,28.4,20.5,29.94,WSW,258,6.3,9.2,72,0.00,-SN,,0.00,WeatherDisplay:10.37,2013-03-20 09:55:00,
2013-03-20 06:00:00,28.4,20.5,29.94,West,279,3.3,4.0,72,0.00,-SN,,0.00,WeatherDisplay:10.37,2013-03-20 10:00:00,
2013-03-20 06:05:00,28.4,20.8,29.94,WNW,290,5.5,6.9,73,0.00,-SN,,0.00,WeatherDisplay:10.37,2013-03-20 10:05:00,
2013-03-20 06:10:00,28.3,20.4,29.94,WSW,256,3.4,5.8,72,0.00,-SN,,0.00,WeatherDisplay:10.37,2013-03-20 10:10:00,
2013-03-20 06:15:00,28.3,20.4,29.94,NW,315,5.7,11.5,72,0.00,-SN,,0.00,WeatherDisplay:10.37,2013-03-20 10:15:00,
2013-03-20 06:20:00,28.3,20.4,29.95,WSW,249,4.8,6.9,72,0.00,-SN,,0.00,WeatherDisplay:10.37,2013-03-20 10:20:00,
2013-03-20 06:25:00,28.3,20.7,29.94,WSW,256,2.4,4.0,73,0.00,-SN,,0.00,WeatherDisplay:10.37,2013-03-20 10:25:00,
2013-03-20 06:30:00,28.2,20.7,29.95,West,268,2.1,3.5,73,0.00,-SN,,0.00,WeatherDisplay:10.37,2013-03-20 10:30:00,
2013-03-20 06:35:00,28.2,20.3,29.95,WSW,251,3.5,7.0,72,0.00,-SN,,0.00,WeatherDisplay:10.37,2013-03-20 10:35:00,
2013-03-20 06:40:00,28.2,20.3,29.94,West,262,4.8,8.1,72,0.00,-SN,,0.00,WeatherDisplay:10.37,2013-03-20 10:40:00,
2013-03-20 06:45:00,28.2,20.3,29.94,West,260,3.5,7.0,72,0.00,-SN,,0.00,WeatherDisplay:10.37,2013-03-20 10:45:00,
2013-03-20 06:50:00,28.1,20.2,29.94,West,264,5.6,9.2,72,0.00,-SN,,0.00,WeatherDisplay:10.37,2013-03-20 10:50:00,
2013-03-20 06:55:00,28.1,20.6,29.94,WSW,252,3.3,4.6,73,0.00,-SN,,0.00,WeatherDisplay:10.37,2013-03-20 10:55:00,
2013-03-20 07:00:00,28.1,20.6,29.94,WSW,244,6.0,8.1,73,0.00,-SN,,0.00,WeatherDisplay:10.37,2013-03-20 11:00:00,
2013-03-20 07:05:00,28.1,20.6,29.94,West,262,5.4,11.5,73,0.00,-SN,,0.00,WeatherDisplay:10.37,2013-03-20 11:05:00,
2013-03-20 07:10:00,28.1,20.6,29.94,WSW,246,5.8,11.5,73,0.00,-SN,,0.00,WeatherDisplay:10.37,2013-03-20 11:10:00,
2013-03-20 07:15:00,28.0,20.5,29.94,SW,232,2.1,3.5,73,0.00,-SN,,0.00,WeatherDisplay:10.37,2013-03-20 11:15:00,
2013-03-20 07:20:00,27.9,20.4,29.94,West,279,3.4,6.0,73,0.00,-SN,,0.00,WeatherDisplay:10.37,2013-03-20 11:20:00,
2013-03-20 07:25:00,27.8,20.3,29.94,WNW,289,3.8,7.0,73,0.00,-SN,,0.00,WeatherDisplay:10.37,2013-03-20 11:25:00,
2013-03-20 07:30:00,27.6,20.1,29.94,West,266,2.8,5.8,73,0.00,-SN,,0.00,WeatherDisplay:10.37,2013-03-20 11:30:00,
2013-03-20 07:35:00,27.5,20.0,29.93,West,265,2.6,7.0,73,0.00,-SN,,0.00,WeatherDisplay:10.37,2013-03-20 11:35:00,
2013-03-20 07:40:00,27.5,20.0,29.92,SSW,213,1.2,2.3,73,0.00,-SN,,0.00,WeatherDisplay:10.37,2013-03-20 11:40:00,
2013-03-20 07:45:00,27.4,19.9,29.93,SW,223,2.4,3.5,73,0.00,-SN,,0.00,WeatherDisplay:10.37,2013-03-20 11:45:00,
2013-03-20 07:50:00,27.2,20.0,29.93,SW,236,3.3,6.0,74,0.00,-SN,,0.00,WeatherDisplay:10.37,2013-03-20 11:50:00,
2013-03-20 07:55:00,27.1,19.6,29.94,WSW,250,2.9,4.6,73,0.00,-SN,,0.00,WeatherDisplay:10.37,2013-03-20 11:55:00,
2013-03-20 08:00:00,27.0,19.5,29.94,WSW,250,3.0,3.5,73,0.00,-SN,,0.00,WeatherDisplay:10.37,2013-03-20 12:00:00,
2013-03-20 08:05:00,27.0,19.8,29.94,WSW,242,3.1,3.5,74,0.00,-SN,,0.00,WeatherDisplay:10.37,2013-03-20 12:05:00,
2013-03-20 08:10:00,27.0,19.5,29.95,West,261,4.3,6.9,73,0.00,-SN,,0.00,WeatherDisplay:10.37,2013-03-20 12:10:00,
2013-03-20 08:15:00,27.1,19.6,29.95,WSW,254,3.4,7.0,73,0.00,-SN,,0.00,WeatherDisplay:10.37,2013-03-20 12:15:00,
2013-03-20 08:20:00,27.3,19.8,29.94,SW,234,2.2,3.5,73,0.00,-SN,,0.00,WeatherDisplay:10.37,2013-03-20 12:20:00,
2013-03-20 08:25:00,27.4,19.9,29.94,West,277,5.9,8.1,73,0.00,-SN,,0.00,WeatherDisplay:10.37,2013-03-20 12:25:00,
2013-03-20 08:30:00,27.6,20.1,29.94,WSW,238,4.7,6.9,73,0.00,-SN,,0.00,WeatherDisplay:10.37,2013-03-20 12:30:00,
2013-03-20 08:35:00,27.8,20.3,29.93,WSW,239,6.7,8.1,73,0.00,-SN,,0.00,WeatherDisplay:10.37,2013-03-20 12:35:00,
2013-03-20 08:40:00,27.9,20.4,29.93,WSW,244,5.7,8.0,73,0.00,-SN,,0.00,WeatherDisplay:10.37,2013-03-20 12:40:00,
2013-03-20 08:45:00,28.0,20.5,29.93,West,268,6.7,12.7,73,0.00,-SN,,0.00,WeatherDisplay:10.37,2013-03-20 12:45:00,
2013-03-20 08:50:00,28.2,20.7,29.93,West,275,5.9,15.0,73,0.00,-SN,,0.00,WeatherDisplay:10.37,2013-03-20 12:50:00,
2013-03-20 08:55:00,28.3,20.4,29.93,WSW,244,7.3,13.8,72,0.00,-SN,,0.00,WeatherDisplay:10.37,2013-03-20 12:55:00,
2013-03-20 09:00:00,28.4,20.5,29.93,WSW,258,8.7,15.0,72,0.00,-SN,,0.00,WeatherDisplay:10.37,2013-03-20 13:00:00,
2013-03-20 09:05:00,28.5,20.6,29.93,WSW,246,10.2,17.3,72,0.00,SCT,,0.00,WeatherDisplay:10.37,2013-03-20 13:05:00,
2013-03-20 09:10:00,28.6,20.4,29.92,WSW,243,14.1,18.4,71,0.00,SCT,,0.00,WeatherDisplay:10.37,2013-03-20 13:10:00,
2013-03-20 09:15:00,28.7,20.5,29.93,West,264,6.6,10.4,71,0.00,SCT,,0.00,WeatherDisplay:10.37,2013-03-20 13:15:00,
2013-03-20 09:20:00,28.8,20.2,29.92,West,281,12.8,19.6,70,0.00,SCT,,0.00,WeatherDisplay:10.37,2013-03-20 13:20:00,
2013-03-20 09:25:00,29.0,20.4,29.92,West,266,10.9,19.6,70,0.00,SCT,,0.00,WeatherDisplay:10.37,2013-03-20 13:25:00,
2013-03-20 09:30:00,29.0,20.1,29.92,West,263,7.6,12.7,69,0.00,SCT,,0.00,WeatherDisplay:10.37,2013-03-20 13:30:00,
2013-03-20 09:35:00,29.3,20.7,29.92,West,264,7.2,12.7,70,0.00,SCT,,0.00,WeatherDisplay:10.37,2013-03-20 13:35:00,
2013-03-20 09:40:00,29.4,20.5,29.92,West,279,9.9,19.6,69,0.00,SCT,,0.00,WeatherDisplay:10.37,2013-03-20 13:40:00,
2013-03-20 09:45:00,29.6,20.7,29.92,WNW,289,8.3,17.3,69,0.00,SCT,,0.00,WeatherDisplay:10.37,2013-03-20 13:45:00,
2013-03-20 09:50:00,29.7,20.8,29.92,WSW,244,5.8,11.5,69,0.00,SCT,,0.00,WeatherDisplay:10.37,2013-03-20 13:50:00,
2013-03-20 09:55:00,29.7,20.8,29.92,SSW,211,12.6,19.6,69,0.00,SCT,,0.00,WeatherDisplay:10.37,2013-03-20 13:55:00,
2013-03-20 10:00:00,29.6,20.0,29.92,West,261,9.6,12.7,67,0.00,SCT,,0.00,WeatherDisplay:10.37,2013-03-20 14:00:00,
2013-03-20 10:05:00,29.5,19.9,29.92,West,267,8.5,13.8,67,0.00,BKN,,0.00,WeatherDisplay:10.37,2013-03-20 14:05:00,
2013-03-20 10:10:00,29.4,20.1,29.92,West,263,6.1,11.5,68,0.00,BKN,,0.00,WeatherDisplay:10.37,2013-03-20 14:10:00,
2013-03-20 10:15:00,29.6,20.7,29.91,West,273,4.4,9.0,69,0.00,BKN,,0.00,WeatherDisplay:10.37,2013-03-20 14:15:00,
2013-03-20 10:20:00,30.2,20.6,29.91,West,259,11.3,15.0,67,0.00,BKN,,0.00,WeatherDisplay:10.37,2013-03-20 14:20:00,
2013-03-20 10:25:00,30.3,21.0,29.91,West,259,4.8,8.1,68,0.00,BKN,,0.00,WeatherDisplay:10.37,2013-03-20 14:25:00,
2013-03-20 10:30:00,30.4,20.4,29.91,WNW,294,6.6,11.5,66,0.00,BKN,,0.00,WeatherDisplay:10.37,2013-03-20 14:30:00,
2013-03-20 10:35:00,30.4,21.1,29.91,WNW,290,10.5,13.8,68,0.00,BKN,,0.00,WeatherDisplay:10.37,2013-03-20 14:35:00,
2013-03-20 10:40:00,30.4,20.0,29.91,West,264,9.7,20.7,65,0.00,BKN,,0.00,WeatherDisplay:10.37,2013-03-20 14:40:00,
2013-03-20 10:45:00,30.4,20.4,29.91,WSW,245,10.1,18.4,66,0.00,BKN,,0.00,WeatherDisplay:10.37,2013-03-20 14:45:00,
2013-03-20 10:50:00,30.4,20.7,29.91,West,259,6.9,10.4,67,0.00,BKN,,0.00,WeatherDisplay:10.37,2013-03-20 14:50:00,
2013-03-20 10:55:00,30.7,21.4,29.91,WNW,284,5.3,8.1,68,0.00,BKN,,0.00,WeatherDisplay:10.37,2013-03-20 14:55:00,
2013-03-20 11:00:00,30.9,21.6,29.91,WSW,249,6.7,16.1,68,0.00,BKN,,0.00,WeatherDisplay:10.37,2013-03-20 15:00:00,
2013-03-20 11:05:00,31.1,21.4,29.91,WNW,294,10.6,18.4,67,0.00,BKN,,0.00,WeatherDisplay:10.37,2013-03-20 15:05:00,
2013-03-20 11:10:00,30.8,20.4,29.91,West,273,9.1,16.1,65,0.00,BKN,,0.00,WeatherDisplay:10.37,2013-03-20 15:10:00,
2013-03-20 11:15:00,30.5,20.5,29.91,WNW,282,8.8,11.5,66,0.00,BKN,,0.00,WeatherDisplay:10.37,2013-03-20 15:15:00,
2013-03-20 11:20:00,30.3,20.3,29.91,West,277,9.1,13.8,66,0.00,BKN,,0.00,WeatherDisplay:10.37,2013-03-20 15:20:00,
2013-03-20 11:25:00,30.3,20.6,29.91,West,265,6.9,12.7,67,0.00,BKN,,0.00,WeatherDisplay:10.37,2013-03-20 15:25:00,
2013-03-20 11:30:00,30.3,20.3,29.91,WNW,295,6.5,10.4,66,0.00,BKN,,0.00,WeatherDisplay:10.37,2013-03-20 15:30:00,
2013-03-20 11:35:00,30.6,20.6,29.91,West,261,9.1,13.8,66,0.00,BKN,,0.00,WeatherDisplay:10.37,2013-03-20 15:35:00,
2013-03-20 11:40:00,30.7,20.3,29.90,WNW,285,4.7,11.5,65,0.00,BKN,,0.00,WeatherDisplay:10.37,2013-03-20 15:40:00,
2013-03-20 11:45:00,30.8,21.5,29.90,West,271,7.1,11.0,68,0.00,BKN,,0.00,WeatherDisplay:10.37,2013-03-20 15:45:00,
2013-03-20 11:50:00,31.0,21.0,29.90,West,279,9.6,19.6,66,0.00,BKN,,0.00,WeatherDisplay:10.37,2013-03-20 15:50:00,
2013-03-20 11:55:00,31.1,20.7,29.90,WNW,295,6.3,9.2,65,0.00,BKN,,0.00,WeatherDisplay:10.37,2013-03-20 15:55:00,
2013-03-20 12:00:00,30.9,20.5,29.91,WSW,240,6.1,11.5,65,0.00,BKN,,0.00,WeatherDisplay:10.37,2013-03-20 16:00:00,
2013-03-20 12:05:00,31.0,20.6,29.91,NW,308,7.0,12.7,65,0.00,OVC,,0.00,WeatherDisplay:10.37,2013-03-20 16:05:00,
2013-03-20 12:10:00,30.7,20.0,29.91,NW,325,8.4,12.0,64,0.00,OVC,,0.00,WeatherDisplay:10.37,2013-03-20 16:10:00,
2013-03-20 12:15:00,30.8,20.0,29.91,NW,309,8.4,14.0,64,0.00,OVC,,0.00,WeatherDisplay:10.37,2013-03-20 16:15:00,
2013-03-20 12:20:00,31.0,20.6,29.91,WSW,258,6.3,19.6,65,0.00,OVC,,0.00,WeatherDisplay:10.37,2013-03-20 16:20:00,
2013-03-20 12:25:00,30.9,20.5,29.91,West,273,8.3,18.4,65,0.00,OVC,,0.00,WeatherDisplay:10.37,2013-03-20 16:25:00,
2013-03-20 12:30:00,31.0,21.3,29.91,WNW,302,5.2,8.1,67,0.00,OVC,,0.00,WeatherDisplay:10.37,2013-03-20 16:30:00,
2013-03-20 12:35:00,31.3,21.3,29.90,West,271,5.4,8.1,66,0.00,OVC,,0.00,WeatherDisplay:10.37,2013-03-20 16:35:00,
2013-03-20 12:40:00,31.6,21.5,29.91,WNW,283,5.9,11.5,66,0.00,OVC,,0.00,WeatherDisplay:10.37,2013-03-20 16:40:00,
2013-03-20 12:45:00,31.7,21.3,29.91,SW,229,6.8,11.5,65,0.00,OVC,,0.00,WeatherDisplay:10.37,2013-03-20 16:45:00,
2013-03-20 12:50:00,31.6,20.8,29.90,WSW,252,4.9,11.5,64,0.00,OVC,,0.00,WeatherDisplay:10.37,2013-03-20 16:50:00,
2013-03-20 12:55:00,31.8,21.4,29.91,WNW,286,7.7,15.0,65,0.00,OVC,,0.00,WeatherDisplay:10.37,2013-03-20 16:55:00,
2013-03-20 13:00:00,31.5,21.8,29.91,NW,309,11.6,20.7,67,0.00,OVC,,0.00,WeatherDisplay:10.37,2013-03-20 17:00:00,
2013-03-20 13:05:00,31.0,22.4,29.91,WNW,301,7.6,12.7,70,0.00,-SN,,0.00,WeatherDisplay:10.37,2013-03-20 17:05:00,
2013-03-20 13:10:00,31.0,22.4,29.91,NW,311,5.6,11.5,70,0.00,-SN,,0.00,WeatherDisplay:10.37,2013-03-20 17:10:00,
2013-03-20 13:15:00,31.0,21.0,29.91,West,277,8.4,14.0,66,0.00,-SN,,0.00,WeatherDisplay:10.37,2013-03-20 17:15:00,
2013-03-20 13:20:00,31.1,21.4,29.90,WNW,286,5.3,6.9,67,0.00,-SN,,0.00,WeatherDisplay:10.37,2013-03-20 17:20:00,
2013-03-20 13:25:00,31.4,21.3,29.90,NNW,338,4.8,9.2,66,0.00,-SN,,0.00,WeatherDisplay:10.37,2013-03-20 17:25:00,
2013-03-20 13:30:00,31.5,20.7,29.90,WNW,283,5.4,8.1,64,0.00,-SN,,0.00,WeatherDisplay:10.37,2013-03-20 17:30:00,
2013-03-20 13:35:00,31.6,21.2,29.90,West,281,2.7,4.0,65,0.00,-SN,,0.00,WeatherDisplay:10.37,2013-03-20 17:35:00,
2013-03-20 13:40:00,31.5,20.7,29.90,NW,306,8.8,15.0,64,0.00,-SN,,0.00,WeatherDisplay:10.37,2013-03-20 17:40:00,
2013-03-20 13:45:00,31.2,21.9,29.90,WNW,296,5.1,8.1,68,0.00,-SN,,0.00,WeatherDisplay:10.37,2013-03-20 17:45:00,
2013-03-20 13:50:00,30.7,22.4,29.90,WSW,256,4.5,6.0,71,0.00,-SN,,0.00,WeatherDisplay:10.37,2013-03-20 17:50:00,
2013-03-20 13:55:00,30.7,22.7,29.89,NNW,336,0.6,3.5,72,0.00,-SN,,0.00,WeatherDisplay:10.37,2013-03-20 17:55:00,
2013-03-20 14:00:00,31.4,24.4,29.89,NW,307,4.6,8.1,75,0.00,-SN,,0.00,WeatherDisplay:10.37,2013-03-20 18:00:00,
2013-03-20 14:05:00,31.5,23.2,29.89,NW,305,6.5,12.7,71,0.00,-SN,,0.00,WeatherDisplay:10.37,2013-03-20 18:05:00,
2013-03-20 14:10:00,31.2,23.9,29.90,WNW,300,8.0,12.7,74,0.00,-SN,,0.00,WeatherDisplay:10.37,2013-03-20 18:10:00,
2013-03-20 14:15:00,30.5,25.7,29.90,WNW,296,7.4,11.5,82,0.00,-SN,,0.00,WeatherDisplay:10.37,2013-03-20 18:15:00,
2013-03-20 14:20:00,30.5,25.4,29.90,WNW,299,6.6,9.2,81,0.00,-SN,,0.00,WeatherDisplay:10.37,2013-03-20 18:20:00,
2013-03-20 14:25:00,30.5,25.1,29.90,WNW,294,6.2,10.0,80,0.00,-SN,,0.00,WeatherDisplay:10.37,2013-03-20 18:25:00,
2013-03-20 14:30:00,30.3,24.0,29.89,WNW,292,7.1,12.7,77,0.00,-SN,,0.00,WeatherDisplay:10.37,2013-03-20 18:30:00,
2013-03-20 14:35:00,30.5,24.8,29.89,WNW,293,5.3,8.1,79,0.00,-SN,,0.00,WeatherDisplay:10.37,2013-03-20 18:35:00,
2013-03-20 14:40:00,30.6,25.5,29.90,West,275,6.6,13.8,81,0.00,-SN,,0.00,WeatherDisplay:10.37,2013-03-20 18:40:00,
2013-03-20 14:45:00,30.3,25.5,29.89,WNW,297,6.5,10.4,82,0.00,-SN,,0.00,WeatherDisplay:10.37,2013-03-20 18:45:00,
2013-03-20 14:50:00,30.1,24.7,29.89,WNW,290,7.4,12.7,80,0.00,-SN,,0.00,WeatherDisplay:10.37,2013-03-20 18:50:00,
2013-03-20 14:55:00,30.1,24.4,29.89,NW,311,7.6,11.5,79,0.00,-SN,,0.00,WeatherDisplay:10.37,2013-03-20 18:55:00,
2013-03-20 15:00:00,29.2,24.4,29.89,North,350,7.1,9.2,82,0.00,-SN,,0.00,WeatherDisplay:10.37,2013-03-20 19:00:00,
2013-03-20 15:05:00,28.2,24.0,29.89,NW,309,8.3,11.5,84,0.00,-SN,,0.00,WeatherDisplay:10.37,2013-03-20 19:05:00,
2013-03-20 15:10:00,27.8,23.6,29.89,WNW,302,4.8,8.1,84,0.00,-SN,,0.00,WeatherDisplay:10.37,2013-03-20 19:10:00,
2013-03-20 15:15:00,27.9,24.0,29.89,WNW,292,4.6,6.9,85,0.00,-SN,,0.00,WeatherDisplay:10.37,2013-03-20 19:15:00,
2013-03-20 15:20:00,28.3,24.1,29.89,NW,310,4.0,5.0,84,0.00,-SN,,0.00,WeatherDisplay:10.37,2013-03-20 19:20:00,
2013-03-20 15:25:00,28.8,24.3,29.89,NW,315,4.8,7.0,83,0.00,-SN,,0.00,WeatherDisplay:10.37,2013-03-20 19:25:00,
2013-03-20 15:30:00,29.2,24.7,29.89,WNW,289,4.6,5.8,83,0.00,-SN,,0.00,WeatherDisplay:10.37,2013-03-20 19:30:00,
2013-03-20 15:35:00,29.2,25.8,29.89,NW,313,4.5,9.2,87,0.00,-SN,,0.00,WeatherDisplay:10.37,2013-03-20 19:35:00,
2013-03-20 15:40:00,28.9,25.8,29.89,NNW,345,4.5,6.9,88,0.01,-SN,,0.01,WeatherDisplay:10.37,2013-03-20 19:40:00,
2013-03-20 15:45:00,28.7,25.9,29.89,WNW,289,3.7,5.8,89,0.01,-SN,,0.01,WeatherDisplay:10.37,2013-03-20 19:45:00,
2013-03-20 15:50:00,28.9,25.8,29.89,NW,320,5.8,8.1,88,0.01,-SN,,0.01,WeatherDisplay:10.37,2013-03-20 19:50:00,
2013-03-20 15:55:00,28.8,25.1,29.89,WNW,287,6.8,11.5,86,0.01,-SN,,0.01,WeatherDisplay:10.37,2013-03-20 19:55:00,
2013-03-20 16:00:00,28.7,25.0,29.89,West,275,5.5,6.9,86,0.01,-SN,,0.01,WeatherDisplay:10.37,2013-03-20 20:00:00,
2013-03-20 16:05:00,28.7,24.5,29.89,WSW,257,5.1,6.9,84,0.01,-SN,,0.01,WeatherDisplay:10.37,2013-03-20 20:05:00,
2013-03-20 16:10:00,28.7,24.5,29.89,WNW,302,6.8,9.0,84,0.01,-SN,,0.01,WeatherDisplay:10.37,2013-03-20 20:10:00,
2013-03-20 16:15:00,28.6,24.9,29.89,WNW,284,8.4,9.2,86,0.01,-SN,,0.01,WeatherDisplay:10.37,2013-03-20 20:15:00,
2013-03-20 16:20:00,28.5,25.4,29.90,WNW,284,4.4,6.9,88,0.01,-SN,,0.01,WeatherDisplay:10.37,2013-03-20 20:20:00,
2013-03-20 16:25:00,28.5,25.9,29.90,WSW,242,4.9,6.0,90,0.01,-SN,,0.01,WeatherDisplay:10.37,2013-03-20 20:25:00,
2013-03-20 16:30:00,28.3,25.7,29.89,WNW,294,2.6,3.5,90,0.01,-SN,,0.01,WeatherDisplay:10.37,2013-03-20 20:30:00,
2013-03-20 16:35:00,28.6,26.0,29.89,NNW,333,3.9,6.9,90,0.01,-SN,,0.01,WeatherDisplay:10.37,2013-03-20 20:35:00,
2013-03-20 16:40:00,29.2,26.1,29.89,WNW,294,5.0,6.9,88,0.00,-SN,,0.01,WeatherDisplay:10.37,2013-03-20 20:40:00,
2013-03-20 16:45:00,29.3,24.8,29.89,NW,309,4.8,5.8,83,0.00,-SN,,0.01,WeatherDisplay:10.37,2013-03-20 20:45:00,
2013-03-20 16:50:00,29.3,24.2,29.89,NW,311,4.7,8.1,81,0.00,-SN,,0.01,WeatherDisplay:10.37,2013-03-20 20:50:00,
2013-03-20 16:55:00,29.2,23.8,29.89,West,279,6.4,9.2,80,0.00,-SN,,0.01,WeatherDisplay:10.37,2013-03-20 20:55:00,
2013-03-20 17:00:00,29.1,23.7,29.89,WNW,290,7.6,11.5,80,0.00,-SN,,0.01,WeatherDisplay:10.37,2013-03-20 21:00:00,
2013-03-20 17:05:00,29.0,23.9,29.89,WNW,300,5.9,9.2,81,0.00,BKN,,0.01,WeatherDisplay:10.37,2013-03-20 21:05:00,
2013-03-20 17:10:00,28.8,24.6,29.89,WNW,303,5.9,11.5,84,0.00,BKN,,0.01,WeatherDisplay:10.37,2013-03-20 21:10:00,
2013-03-20 17:15:00,28.6,25.2,29.89,NNW,341,3.0,4.6,87,0.00,BKN,,0.01,WeatherDisplay:10.37,2013-03-20 21:15:00,
2013-03-20 17:20:00,28.9,25.8,29.89,NW,308,2.8,4.6,88,0.00,BKN,,0.01,WeatherDisplay:10.37,2013-03-20 21:20:00,
2013-03-20 17:25:00,29.4,25.7,29.89,NNW,337,4.2,5.8,86,0.00,BKN,,0.01,WeatherDisplay:10.37,2013-03-20 21:25:00,
2013-03-20 17:30:00,29.4,24.9,29.89,NW,305,3.5,11.5,83,0.00,BKN,,0.01,WeatherDisplay:10.37,2013-03-20 21:30:00,
2013-03-20 17:35:00,29.4,24.6,29.89,NW,304,3.5,5.0,82,0.00,BKN,,0.01,WeatherDisplay:10.37,2013-03-20 21:35:00,
2013-03-20 17:40:00,29.3,24.2,29.89,WNW,285,5.3,9.2,81,0.00,BKN,,0.01,WeatherDisplay:10.37,2013-03-20 21:40:00,
2013-03-20 17:45:00,29.2,23.8,29.89,WNW,292,4.6,6.9,80,0.00,BKN,,0.01,WeatherDisplay:10.37,2013-03-20 21:45:00,
2013-03-20 17:50:00,29.4,24.3,29.89,WNW,292,2.2,6.0,81,0.00,BKN,,0.01,WeatherDisplay:10.37,2013-03-20 21:50:00,
2013-03-20 17:55:00,29.6,23.3,29.89,WNW,300,3.5,4.6,77,0.00,BKN,,0.01,WeatherDisplay:10.37,2013-03-20 21:55:00,
2013-03-20 18:00:00,29.7,23.4,29.89,WNW,292,3.0,8.1,77,0.00,BKN,,0.01,WeatherDisplay:10.37,2013-03-20 22:00:00,
2013-03-20 18:05:00,29.7,23.4,29.89,West,277,5.4,7.0,77,0.00,-SN,,0.01,WeatherDisplay:10.37,2013-03-20 22:05:00,
2013-03-20 18:10:00,29.6,22.6,29.88,WNW,290,3.2,6.9,75,0.00,-SN,,0.01,WeatherDisplay:10.37,2013-03-20 22:10:00,
2013-03-20 18:15:00,29.4,23.1,29.88,WNW,290,3.0,5.0,77,0.00,-SN,,0.01,WeatherDisplay:10.37,2013-03-20 22:15:00,
2013-03-20 18:20:00,29.3,22.7,29.88,West,281,6.1,9.2,76,0.00,-SN,,0.01,WeatherDisplay:10.37,2013-03-20 22:20:00,
2013-03-20 18:25:00,29.1,22.5,29.88,NNW,333,4.4,6.0,76,0.00,-SN,,0.01,WeatherDisplay:10.37,2013-03-20 22:25:00,
2013-03-20 18:30:00,29.0,22.4,29.88,NNW,333,4.2,6.9,76,0.00,-SN,,0.01,WeatherDisplay:10.37,2013-03-20 22:30:00,
2013-03-20 18:35:00,28.8,22.2,29.88,WNW,302,4.8,8.1,76,0.00,-SN,,0.01,WeatherDisplay:10.37,2013-03-20 22:35:00,
2013-03-20 18:40:00,28.7,22.4,29.88,NNW,338,6.0,12.7,77,0.00,-SN,,0.01,WeatherDisplay:10.37,2013-03-20 22:40:00,
2013-03-20 18:45:00,28.5,21.9,29.89,West,273,6.6,11.0,76,0.00,-SN,,0.01,WeatherDisplay:10.37,2013-03-20 22:45:00,
2013-03-20 18:50:00,28.5,22.5,29.89,West,260,5.7,8.1,78,0.00,-SN,,0.01,WeatherDisplay:10.37,2013-03-20 22:50:00,
2013-03-20 18:55:00,28.3,22.3,29.89,West,275,2.1,6.9,78,0.00,-SN,,0.01,WeatherDisplay:10.37,2013-03-20 22:55:00,
2013-03-20 19:00:00,28.1,22.4,29.89,WNW,287,2.8,4.6,79,0.00,-SN,,0.01,WeatherDisplay:10.37,2013-03-20 23:00:00,
2013-03-20 19:05:00,28.1,22.4,29.89,WNW,293,2.7,5.8,79,0.00,BKN,,0.01,WeatherDisplay:10.37,2013-03-20 23:05:00,
2013-03-20 19:10:00,28.1,22.4,29.89,NW,321,5.5,6.9,79,0.00,BKN,,0.01,WeatherDisplay:10.37,2013-03-20 23:10:00,
2013-03-20 19:15:00,28.0,22.0,29.89,NNW,330,4.8,6.9,78,0.00,BKN,,0.01,WeatherDisplay:10.37,2013-03-20 23:15:00,
2013-03-20 19:20:00,27.9,21.9,29.89,NNW,346,4.0,7.0,78,0.00,BKN,,0.01,WeatherDisplay:10.37,2013-03-20 23:20:00,
2013-03-20 19:25:00,27.7,21.7,29.89,WNW,287,4.6,6.0,78,0.00,BKN,,0.01,WeatherDisplay:10.37,2013-03-20 23:25:00,
2013-03-20 19:30:00,27.4,21.4,29.89,WNW,293,4.4,5.8,78,0.00,BKN,,0.01,WeatherDisplay:10.37,2013-03-20 23:30:00,
2013-03-20 19:35:00,27.2,21.5,29.89,West,271,1.5,3.5,79,0.00,BKN,,0.01,WeatherDisplay:10.37,2013-03-20 23:35:00,
2013-03-20 19:40:00,27.1,21.5,29.90,NNW,343,2.8,4.6,79,0.00,BKN,,0.01,WeatherDisplay:10.37,2013-03-20 23:40:00,
2013-03-20 19:45:00,27.0,21.4,29.90,WNW,302,1.7,3.5,79,0.00,BKN,,0.01,WeatherDisplay:10.37,2013-03-20 23:45:00,
2013-03-20 19:50:00,26.9,21.6,29.90,WNW,291,2.9,6.9,80,0.00,BKN,,0.01,WeatherDisplay:10.37,2013-03-20 23:50:00,
2013-03-20 19:55:00,26.8,21.5,29.90,NW,321,3.4,4.6,80,0.00,BKN,,0.01,WeatherDisplay:10.37,2013-03-20 23:55:00,
2013-03-20 20:00:00,26.8,21.8,29.90,WNW,295,5.4,6.9,81,0.00,BKN,,0.01,WeatherDisplay:10.37,2013-03-21 00:00:00,
2013-03-20 20:05:00,26.7,21.7,29.90,WNW,303,3.4,4.6,81,0.00,SCT,,0.01,WeatherDisplay:10.37,2013-03-21 00:05:00,
2013-03-20 20:10:00,26.7,21.9,29.90,NW,304,2.2,5.0,82,0.00,SCT,,0.01,WeatherDisplay:10.37,2013-03-21 00:10:00,
2013-03-20 20:15:00,26.6,21.8,29.90,NW,310,2.9,4.6,82,0.00,SCT,,0.01,WeatherDisplay:10.37,2013-03-21 00:15:00,
2013-03-20 20:20:00,26.5,22.0,29.90,WNW,303,3.3,4.6,83,0.00,SCT,,0.01,WeatherDisplay:10.37,2013-03-21 00:20:00,
2013-03-20 20:25:00,26.3,21.8,29.90,WNW,303,2.0,3.5,83,0.00,SCT,,0.01,WeatherDisplay:10.37,2013-03-21 00:25:00,
2013-03-20 20:30:00,26.2,22.0,29.90,WNW,293,2.9,4.6,84,0.00,SCT,,0.01,WeatherDisplay:10.37,2013-03-21 00:30:00,
2013-03-20 20:35:00,26.0,22.1,29.90,WNW,293,2.9,3.5,85,0.00,SCT,,0.01,WeatherDisplay:10.37,2013-03-21 00:35:00,
2013-03-20 20:40:00,26.0,22.1,29.90,WNW,298,3.0,4.6,85,0.00,SCT,,0.01,WeatherDisplay:10.37,2013-03-21 00:40:00,
2013-03-20 20:45:00,25.9,22.0,29.91,WNW,300,4.8,5.8,85,0.00,SCT,,0.01,WeatherDisplay:10.37,2013-03-21 00:45:00,
2013-03-20 20:50:00,25.9,22.3,29.91,West,276,2.3,4.0,86,0.00,SCT,,0.01,WeatherDisplay:10.37,2013-03-21 00:50:00,
2013-03-20 20:55:00,25.8,22.2,29.91,NNW,328,1.6,5.0,86,0.00,SCT,,0.01,WeatherDisplay:10.37,2013-03-21 00:55:00,
2013-03-20 21:00:00,25.7,22.1,29.91,WNW,296,3.7,5.8,86,0.00,SCT,,0.01,WeatherDisplay:10.37,2013-03-21 01:00:00,
2013-03-20 21:05:00,25.7,22.4,29.91,WNW,292,3.1,5.0,87,0.00,SCT,,0.01,WeatherDisplay:10.37,2013-03-21 01:05:00,
2013-03-20 21:10:00,25.6,22.3,29.91,WNW,292,2.8,4.6,87,0.00,SCT,,0.01,WeatherDisplay:10.37,2013-03-21 01:10:00,
2013-03-20 21:15:00,25.6,22.3,29.91,WNW,292,0.0,0.0,87,0.00,SCT,,0.01,WeatherDisplay:10.37,2013-03-21 01:15:00,
2013-03-20 21:20:00,25.5,22.4,29.91,WNW,292,1.2,3.5,88,0.00,SCT,,0.01,WeatherDisplay:10.37,2013-03-21 01:20:00,
2013-03-20 21:25:00,25.5,22.4,29.91,WNW,292,0.7,3.5,88,0.00,SCT,,0.01,WeatherDisplay:10.37,2013-03-21 01:25:00,
2013-03-20 21:30:00,25.5,22.4,29.91,WNW,292,1.6,4.6,88,0.00,SCT,,0.01,WeatherDisplay:10.37,2013-03-21 01:30:00,
2013-03-20 21:35:00,25.5,22.7,29.91,WNW,299,4.8,6.9,89,0.00,SCT,,0.01,WeatherDisplay:10.37,2013-03-21 01:35:00,
2013-03-20 21:40:00,25.6,22.5,29.91,West,262,2.4,3.5,88,0.00,SCT,,0.01,WeatherDisplay:10.37,2013-03-21 01:40:00,
2013-03-20 21:45:00,25.6,22.5,29.91,WNW,291,0.6,2.0,88,0.00,SCT,,0.01,WeatherDisplay:10.37,2013-03-21 01:45:00,
2013-03-20 21:50:00,25.6,22.8,29.91,WNW,286,2.1,3.5,89,0.00,SCT,,0.01,WeatherDisplay:10.37,2013-03-21 01:50:00,
2013-03-20 21:55:00,25.6,22.8,29.91,West,275,3.3,5.0,89,0.00,SCT,,0.01,WeatherDisplay:10.37,2013-03-21 01:55:00,
2013-03-20 22:00:00,25.7,23.2,29.91,West,275,2.3,4.6,90,0.00,SCT,,0.01,WeatherDisplay:10.37,2013-03-21 02:00:00,
2013-03-20 22:05:00,25.6,23.1,29.91,WNW,286,6.5,9.2,90,0.00,-SN,,0.01,WeatherDisplay:10.37,2013-03-21 02:05:00,
2013-03-20 22:10:00,25.4,22.9,29.91,West,273,2.2,5.8,90,0.00,-SN,,0.01,WeatherDisplay:10.37,2013-03-21 02:10:00,
2013-03-20 22:15:00,25.2,22.9,29.91,NNW,330,7.3,9.2,91,0.00,-SN,,0.01,WeatherDisplay:10.37,2013-03-21 02:15:00,
2013-03-20 22:20:00,25.1,22.8,29.91,WNW,292,3.6,5.0,91,0.00,-SN,,0.01,WeatherDisplay:10.37,2013-03-21 02:20:00,
2013-03-20 22:25:00,25.0,23.0,29.91,West,275,5.5,8.0,92,0.00,-SN,,0.01,WeatherDisplay:10.37,2013-03-21 02:25:00,
2013-03-20 22:30:00,24.8,22.5,29.91,West,273,4.8,6.9,91,0.00,-SN,,0.01,WeatherDisplay:10.37,2013-03-21 02:30:00,
2013-03-20 22:35:00,24.7,22.7,29.91,WNW,284,1.1,3.5,92,0.00,-SN,,0.01,WeatherDisplay:10.37,2013-03-21 02:35:00,
2013-03-20 22:40:00,24.7,23.0,29.91,WSW,250,2.8,2.8,93,0.00,-SN,,0.01,WeatherDisplay:10.37,2013-03-21 02:40:00,
2013-03-20 22:45:00,24.6,22.9,29.91,West,278,5.4,8.1,93,0.00,-SN,,0.01,WeatherDisplay:10.37,2013-03-21 02:45:00,
2013-03-20 22:50:00,24.5,22.8,29.91,West,267,2.0,4.6,93,0.00,-SN,,0.01,WeatherDisplay:10.37,2013-03-21 02:50:00,
2013-03-20 22:55:00,24.4,22.7,29.91,WNW,302,4.8,7.0,93,0.00,-SN,,0.01,WeatherDisplay:10.37,2013-03-21 02:55:00,
2013-03-20 23:00:00,24.3,22.6,29.91,West,275,3.9,4.6,93,0.00,-SN,,0.01,WeatherDisplay:10.37,2013-03-21 03:00:00,
2013-03-20 23:05:00,24.3,22.3,29.91,WNW,283,3.8,4.6,92,0.00,-SN,,0.01,WeatherDisplay:10.37,2013-03-21 03:05:00,
2013-03-20 23:10:00,24.2,22.2,29.91,WNW,284,4.7,6.9,92,0.00,-SN,,0.01,WeatherDisplay:10.37,2013-03-21 03:10:00,
2013-03-20 23:15:00,24.2,22.2,29.90,WNW,302,4.7,11.5,92,0.00,-SN,,0.01,WeatherDisplay:10.37,2013-03-21 03:15:00,
2013-03-20 23:20:00,24.1,21.9,29.90,WNW,293,2.9,8.1,91,0.00,-SN,,0.01,WeatherDisplay:10.37,2013-03-21 03:20:00,
2013-03-20 23:25:00,24.0,21.8,29.90,WSW,257,4.4,8.1,91,0.00,-SN,,0.01,WeatherDisplay:10.37,2013-03-21 03:25:00,
2013-03-20 23:30:00,24.0,21.8,29.90,WNW,293,3.2,5.8,91,0.00,-SN,,0.01,WeatherDisplay:10.37,2013-03-21 03:30:00,
2013-03-20 23:35:00,23.9,21.4,29.90,West,267,4.6,6.9,90,0.00,-SN,,0.01,WeatherDisplay:10.37,2013-03-21 03:35:00,
2013-03-20 23:40:00,23.9,21.4,29.90,West,276,3.6,6.0,90,0.00,-SN,,0.01,WeatherDisplay:10.37,2013-03-21 03:40:00,
2013-03-20 23:45:00,23.8,21.3,29.90,NW,309,6.1,8.1,90,0.00,-SN,,0.01,WeatherDisplay:10.37,2013-03-21 03:45:00,
2013-03-20 23:50:00,23.8,21.3,29.90,WNW,287,2.1,4.6,90,0.00,-SN,,0.01,WeatherDisplay:10.37,2013-03-21 03:50:00,
2013-03-20 23:55:00,23.7,21.2,29.90,West,259,1.4,3.5,90,0.00,-SN,,0.01,WeatherDisplay:10.37,2013-03-21 03:55:00,